sensor_id;sensor_type;location;lat;lon;timestamp;P1;durP1;ratioP1;P2;durP2;ratioP2
78614;SDS011;67937;52.488;20.952;2024-02-26T00:00:54;19.90;;;9.40;;
78614;SDS011;67937;52.488;20.952;2024-02-26T00:03:43;20.00;;;9.90;;
78614;SDS011;67937;52.488;20.952;2024-02-26T00:06:12;22.30;;;11.30;;
78614;SDS011;67937;52.488;20.952;2024-02-26T00:08:40;17.90;;;9.60;;
78614;SDS011;67937;52.488;20.952;2024-02-26T00:11:08;17.60;;;10.00;;
78614;SDS011;67937;52.488;20.952;2024-02-26T00:13:36;23.00;;;11.70;;
78614;SDS011;67937;52.488;20.952;2024-02-26T00:16:04;25.70;;;12.90;;
78614;SDS011;67937;52.488;20.952;2024-02-26T00:18:33;24.80;;;12.00;;
78614;SDS011;67937;52.488;20.952;2024-02-26T00:21:02;24.10;;;12.50;;
78614;SDS011;67937;52.488;20.952;2024-02-26T00:23:30;27.90;;;12.70;;
78614;SDS011;67937;52.488;20.952;2024-02-26T00:25:58;28.10;;;14.20;;
78614;SDS011;67937;52.488;20.952;2024-02-26T00:28:26;28.60;;;12.60;;
78614;SDS011;67937;52.488;20.952;2024-02-26T00:30:55;24.00;;;12.40;;
78614;SDS011;67937;52.488;20.952;2024-02-26T00:33:23;34.40;;;14.00;;
78614;SDS011;67937;52.488;20.952;2024-02-26T00:35:51;36.60;;;15.80;;
78614;SDS011;67937;52.488;20.952;2024-02-26T00:38:19;31.60;;;13.70;;
78614;SDS011;67937;52.488;20.952;2024-02-26T00:40:48;28.00;;;12.90;;
78614;SDS011;67937;52.488;20.952;2024-02-26T00:43:16;29.30;;;12.80;;
78614;SDS011;67937;52.488;20.952;2024-02-26T00:45:44;23.80;;;12.40;;
78614;SDS011;67937;52.488;20.952;2024-02-26T00:48:13;25.70;;;13.00;;
78614;SDS011;67937;52.488;20.952;2024-02-26T00:50:41;28.90;;;14.00;;
78614;SDS011;67937;52.488;20.952;2024-02-26T00:53:09;27.80;;;13.40;;
78614;SDS011;67937;52.488;20.952;2024-02-26T00:55:37;30.80;;;15.60;;
78614;SDS011;67937;52.488;20.952;2024-02-26T00:58:05;33.50;;;15.70;;
78614;SDS011;67937;52.488;20.952;2024-02-26T01:00:33;26.90;;;13.40;;
78614;SDS011;67937;52.488;20.952;2024-02-26T01:03:01;30.70;;;14.60;;
78614;SDS011;67937;52.488;20.952;2024-02-26T01:05:30;25.70;;;12.90;;
78614;SDS011;67937;52.488;20.952;2024-02-26T01:07:58;26.40;;;13.00;;
78614;SDS011;67937;52.488;20.952;2024-02-26T01:10:26;25.30;;;12.30;;
78614;SDS011;67937;52.488;20.952;2024-02-26T01:12:54;22.30;;;12.60;;
78614;SDS011;67937;52.488;20.952;2024-02-26T01:15:22;31.30;;;14.50;;
78614;SDS011;67937;52.488;20.952;2024-02-26T01:17:50;30.30;;;15.40;;
78614;SDS011;67937;52.488;20.952;2024-02-26T01:20:19;24.40;;;14.60;;
78614;SDS011;67937;52.488;20.952;2024-02-26T01:22:47;24.20;;;14.10;;
78614;SDS011;67937;52.488;20.952;2024-02-26T01:25:15;26.00;;;12.80;;
78614;SDS011;67937;52.488;20.952;2024-02-26T01:27:43;24.70;;;12.40;;
78614;SDS011;67937;52.488;20.952;2024-02-26T01:30:11;28.30;;;15.00;;
78614;SDS011;67937;52.488;20.952;2024-02-26T01:32:42;26.60;;;14.90;;
78614;SDS011;67937;52.488;20.952;2024-02-26T01:35:10;32.40;;;16.20;;
78614;SDS011;67937;52.488;20.952;2024-02-26T01:37:39;28.30;;;14.70;;
78614;SDS011;67937;52.488;20.952;2024-02-26T01:40:08;31.70;;;15.10;;
78614;SDS011;67937;52.488;20.952;2024-02-26T01:42:39;33.50;;;15.50;;
78614;SDS011;67937;52.488;20.952;2024-02-26T01:45:09;27.30;;;14.70;;
78614;SDS011;67937;52.488;20.952;2024-02-26T01:47:48;24.60;;;13.20;;
78614;SDS011;67937;52.488;20.952;2024-02-26T01:50:18;24.40;;;13.50;;
78614;SDS011;67937;52.488;20.952;2024-02-26T01:52:46;29.90;;;13.70;;
78614;SDS011;67937;52.488;20.952;2024-02-26T01:55:17;28.20;;;13.80;;
78614;SDS011;67937;52.488;20.952;2024-02-26T01:57:48;28.40;;;13.70;;
78614;SDS011;67937;52.488;20.952;2024-02-26T02:00:18;27.50;;;14.00;;
78614;SDS011;67937;52.488;20.952;2024-02-26T02:02:47;28.50;;;13.50;;
78614;SDS011;67937;52.488;20.952;2024-02-26T02:05:16;32.90;;;15.10;;
78614;SDS011;67937;52.488;20.952;2024-02-26T02:07:44;26.90;;;13.40;;
78614;SDS011;67937;52.488;20.952;2024-02-26T02:10:13;24.30;;;12.40;;
78614;SDS011;67937;52.488;20.952;2024-02-26T02:12:41;26.60;;;13.50;;
78614;SDS011;67937;52.488;20.952;2024-02-26T02:15:09;28.40;;;15.20;;
78614;SDS011;67937;52.488;20.952;2024-02-26T02:17:37;25.60;;;13.10;;
78614;SDS011;67937;52.488;20.952;2024-02-26T02:20:09;24.10;;;13.60;;
78614;SDS011;67937;52.488;20.952;2024-02-26T02:22:43;26.30;;;14.70;;
78614;SDS011;67937;52.488;20.952;2024-02-26T02:25:14;24.10;;;13.10;;
78614;SDS011;67937;52.488;20.952;2024-02-26T02:27:42;29.30;;;14.70;;
78614;SDS011;67937;52.488;20.952;2024-02-26T02:30:11;29.00;;;13.50;;
78614;SDS011;67937;52.488;20.952;2024-02-26T02:32:39;24.10;;;12.80;;
78614;SDS011;67937;52.488;20.952;2024-02-26T02:35:08;27.70;;;13.70;;
78614;SDS011;67937;52.488;20.952;2024-02-26T02:37:37;23.60;;;12.50;;
78614;SDS011;67937;52.488;20.952;2024-02-26T02:40:05;24.60;;;14.50;;
78614;SDS011;67937;52.488;20.952;2024-02-26T02:42:33;24.80;;;13.60;;
78614;SDS011;67937;52.488;20.952;2024-02-26T02:45:02;23.40;;;13.10;;
78614;SDS011;67937;52.488;20.952;2024-02-26T02:47:30;22.10;;;12.80;;
78614;SDS011;67937;52.488;20.952;2024-02-26T02:49:58;22.90;;;12.60;;
78614;SDS011;67937;52.488;20.952;2024-02-26T02:52:26;23.30;;;12.10;;
78614;SDS011;67937;52.488;20.952;2024-02-26T02:54:54;24.70;;;12.30;;
78614;SDS011;67937;52.488;20.952;2024-02-26T02:57:22;23.10;;;12.20;;
78614;SDS011;67937;52.488;20.952;2024-02-26T02:59:50;25.60;;;12.20;;
78614;SDS011;67937;52.488;20.952;2024-02-26T03:02:18;24.00;;;13.30;;
78614;SDS011;67937;52.488;20.952;2024-02-26T03:04:46;22.80;;;12.60;;
78614;SDS011;67937;52.488;20.952;2024-02-26T03:07:14;27.90;;;13.10;;
78614;SDS011;67937;52.488;20.952;2024-02-26T03:09:42;22.30;;;13.50;;
78614;SDS011;67937;52.488;20.952;2024-02-26T03:12:10;23.30;;;11.90;;
78614;SDS011;67937;52.488;20.952;2024-02-26T03:14:38;19.50;;;11.20;;
78614;SDS011;67937;52.488;20.952;2024-02-26T03:17:06;21.80;;;13.00;;
78614;SDS011;67937;52.488;20.952;2024-02-26T03:19:34;25.50;;;12.90;;
78614;SDS011;67937;52.488;20.952;2024-02-26T03:22:02;25.80;;;13.50;;
78614;SDS011;67937;52.488;20.952;2024-02-26T03:24:30;29.40;;;13.00;;
78614;SDS011;67937;52.488;20.952;2024-02-26T03:26:58;26.70;;;13.60;;
78614;SDS011;67937;52.488;20.952;2024-02-26T03:29:26;28.00;;;13.30;;
78614;SDS011;67937;52.488;20.952;2024-02-26T03:31:54;27.70;;;13.70;;
78614;SDS011;67937;52.488;20.952;2024-02-26T03:34:22;26.50;;;14.20;;
78614;SDS011;67937;52.488;20.952;2024-02-26T03:36:52;24.30;;;12.60;;
78614;SDS011;67937;52.488;20.952;2024-02-26T03:39:20;25.70;;;14.20;;
78614;SDS011;67937;52.488;20.952;2024-02-26T03:41:48;26.70;;;13.50;;
78614;SDS011;67937;52.488;20.952;2024-02-26T03:44:16;33.80;;;14.60;;
78614;SDS011;67937;52.488;20.952;2024-02-26T03:46:44;33.90;;;15.90;;
78614;SDS011;67937;52.488;20.952;2024-02-26T03:49:12;26.90;;;13.50;;
78614;SDS011;67937;52.488;20.952;2024-02-26T03:51:40;29.80;;;14.20;;
78614;SDS011;67937;52.488;20.952;2024-02-26T03:54:08;29.10;;;13.90;;
78614;SDS011;67937;52.488;20.952;2024-02-26T03:56:36;29.90;;;13.40;;
78614;SDS011;67937;52.488;20.952;2024-02-26T03:59:04;28.30;;;14.10;;
78614;SDS011;67937;52.488;20.952;2024-02-26T04:01:32;30.70;;;15.00;;
78614;SDS011;67937;52.488;20.952;2024-02-26T04:04:00;28.30;;;14.80;;
78614;SDS011;67937;52.488;20.952;2024-02-26T04:06:29;26.00;;;14.80;;
78614;SDS011;67937;52.488;20.952;2024-02-26T04:08:57;30.30;;;16.60;;
78614;SDS011;67937;52.488;20.952;2024-02-26T04:11:25;30.40;;;15.70;;
78614;SDS011;67937;52.488;20.952;2024-02-26T04:13:53;28.00;;;15.00;;
78614;SDS011;67937;52.488;20.952;2024-02-26T04:16:21;29.30;;;14.10;;
78614;SDS011;67937;52.488;20.952;2024-02-26T04:18:49;32.70;;;15.00;;
78614;SDS011;67937;52.488;20.952;2024-02-26T04:21:17;37.90;;;14.80;;
78614;SDS011;67937;52.488;20.952;2024-02-26T04:23:45;25.60;;;14.90;;
78614;SDS011;67937;52.488;20.952;2024-02-26T04:26:13;30.70;;;14.40;;
78614;SDS011;67937;52.488;20.952;2024-02-26T04:28:41;36.20;;;16.30;;
78614;SDS011;67937;52.488;20.952;2024-02-26T04:31:09;45.30;;;17.30;;
78614;SDS011;67937;52.488;20.952;2024-02-26T04:33:37;65.60;;;19.50;;
78614;SDS011;67937;52.488;20.952;2024-02-26T04:36:05;51.30;;;16.70;;
78614;SDS011;67937;52.488;20.952;2024-02-26T04:38:33;38.90;;;14.90;;
78614;SDS011;67937;52.488;20.952;2024-02-26T04:41:01;46.60;;;15.00;;
78614;SDS011;67937;52.488;20.952;2024-02-26T04:43:29;35.60;;;14.80;;
78614;SDS011;67937;52.488;20.952;2024-02-26T04:45:57;30.30;;;14.10;;
78614;SDS011;67937;52.488;20.952;2024-02-26T04:48:27;30.70;;;14.50;;
78614;SDS011;67937;52.488;20.952;2024-02-26T04:50:55;27.30;;;13.70;;
78614;SDS011;67937;52.488;20.952;2024-02-26T04:53:23;33.60;;;14.40;;
78614;SDS011;67937;52.488;20.952;2024-02-26T04:55:51;38.20;;;13.80;;
78614;SDS011;67937;52.488;20.952;2024-02-26T04:58:19;30.70;;;15.80;;
78614;SDS011;67937;52.488;20.952;2024-02-26T05:00:47;33.70;;;15.20;;
78614;SDS011;67937;52.488;20.952;2024-02-26T05:03:15;41.40;;;13.80;;
78614;SDS011;67937;52.488;20.952;2024-02-26T05:05:43;30.80;;;14.70;;
78614;SDS011;67937;52.488;20.952;2024-02-26T05:08:12;27.50;;;15.00;;
78614;SDS011;67937;52.488;20.952;2024-02-26T05:10:40;24.50;;;13.40;;
78614;SDS011;67937;52.488;20.952;2024-02-26T05:13:09;25.70;;;13.60;;
78614;SDS011;67937;52.488;20.952;2024-02-26T05:15:37;34.30;;;15.50;;
78614;SDS011;67937;52.488;20.952;2024-02-26T05:18:05;38.30;;;17.20;;
78614;SDS011;67937;52.488;20.952;2024-02-26T05:20:34;31.90;;;16.30;;
78614;SDS011;67937;52.488;20.952;2024-02-26T05:23:04;25.40;;;13.00;;
78614;SDS011;67937;52.488;20.952;2024-02-26T05:25:32;31.20;;;13.90;;
78614;SDS011;67937;52.488;20.952;2024-02-26T05:28:00;38.10;;;17.30;;
78614;SDS011;67937;52.488;20.952;2024-02-26T05:30:28;36.90;;;16.70;;
78614;SDS011;67937;52.488;20.952;2024-02-26T05:32:56;47.60;;;17.80;;
78614;SDS011;67937;52.488;20.952;2024-02-26T05:35:25;43.30;;;16.10;;
78614;SDS011;67937;52.488;20.952;2024-02-26T05:37:53;46.10;;;15.90;;
78614;SDS011;67937;52.488;20.952;2024-02-26T05:40:21;28.20;;;13.50;;
78614;SDS011;67937;52.488;20.952;2024-02-26T05:42:49;36.20;;;15.30;;
78614;SDS011;67937;52.488;20.952;2024-02-26T05:45:18;40.90;;;16.50;;
78614;SDS011;67937;52.488;20.952;2024-02-26T05:47:46;38.70;;;17.70;;
78614;SDS011;67937;52.488;20.952;2024-02-26T05:50:16;32.00;;;15.50;;
78614;SDS011;67937;52.488;20.952;2024-02-26T05:52:44;33.90;;;16.80;;
78614;SDS011;67937;52.488;20.952;2024-02-26T05:55:12;31.10;;;15.60;;
78614;SDS011;67937;52.488;20.952;2024-02-26T05:57:41;29.30;;;15.50;;
78614;SDS011;67937;52.488;20.952;2024-02-26T06:00:09;31.40;;;14.90;;
78614;SDS011;67937;52.488;20.952;2024-02-26T06:02:38;30.20;;;16.00;;
78614;SDS011;67937;52.488;20.952;2024-02-26T06:05:07;33.40;;;16.70;;
78614;SDS011;67937;52.488;20.952;2024-02-26T06:07:35;31.70;;;14.50;;
78614;SDS011;67937;52.488;20.952;2024-02-26T06:10:03;26.70;;;14.80;;
78614;SDS011;67937;52.488;20.952;2024-02-26T06:12:35;30.80;;;15.10;;
78614;SDS011;67937;52.488;20.952;2024-02-26T06:15:03;28.50;;;13.60;;
78614;SDS011;67937;52.488;20.952;2024-02-26T06:17:32;28.60;;;14.70;;
78614;SDS011;67937;52.488;20.952;2024-02-26T06:20:00;30.70;;;14.50;;
78614;SDS011;67937;52.488;20.952;2024-02-26T06:22:30;28.00;;;14.30;;
78614;SDS011;67937;52.488;20.952;2024-02-26T06:24:58;28.30;;;12.80;;
78614;SDS011;67937;52.488;20.952;2024-02-26T06:27:27;25.70;;;14.00;;
78614;SDS011;67937;52.488;20.952;2024-02-26T06:29:55;30.00;;;14.10;;
78614;SDS011;67937;52.488;20.952;2024-02-26T06:32:23;27.50;;;14.60;;
78614;SDS011;67937;52.488;20.952;2024-02-26T06:34:53;28.90;;;15.10;;
78614;SDS011;67937;52.488;20.952;2024-02-26T06:37:21;28.60;;;14.00;;
78614;SDS011;67937;52.488;20.952;2024-02-26T06:39:49;25.80;;;14.70;;
78614;SDS011;67937;52.488;20.952;2024-02-26T06:42:18;28.50;;;14.70;;
78614;SDS011;67937;52.488;20.952;2024-02-26T06:44:46;22.50;;;14.00;;
78614;SDS011;67937;52.488;20.952;2024-02-26T06:47:14;25.70;;;14.10;;
78614;SDS011;67937;52.488;20.952;2024-02-26T06:49:42;28.50;;;13.70;;
78614;SDS011;67937;52.488;20.952;2024-02-26T06:52:11;22.90;;;12.90;;
78614;SDS011;67937;52.488;20.952;2024-02-26T06:54:39;25.10;;;14.30;;
78614;SDS011;67937;52.488;20.952;2024-02-26T06:57:08;23.40;;;12.50;;
78614;SDS011;67937;52.488;20.952;2024-02-26T06:59:36;29.30;;;14.20;;
78614;SDS011;67937;52.488;20.952;2024-02-26T07:02:05;21.30;;;13.00;;
78614;SDS011;67937;52.488;20.952;2024-02-26T07:04:33;26.80;;;14.20;;
78614;SDS011;67937;52.488;20.952;2024-02-26T07:07:03;24.70;;;13.50;;
78614;SDS011;67937;52.488;20.952;2024-02-26T07:09:31;23.00;;;12.30;;
78614;SDS011;67937;52.488;20.952;2024-02-26T07:11:59;24.10;;;14.50;;
78614;SDS011;67937;52.488;20.952;2024-02-26T07:14:28;27.60;;;13.70;;
78614;SDS011;67937;52.488;20.952;2024-02-26T07:16:56;27.90;;;14.50;;
78614;SDS011;67937;52.488;20.952;2024-02-26T07:19:24;24.00;;;14.20;;
78614;SDS011;67937;52.488;20.952;2024-02-26T07:21:52;22.10;;;12.30;;
78614;SDS011;67937;52.488;20.952;2024-02-26T07:24:21;25.30;;;12.10;;
78614;SDS011;67937;52.488;20.952;2024-02-26T07:26:49;24.50;;;13.40;;
78614;SDS011;67937;52.488;20.952;2024-02-26T07:29:17;26.80;;;13.40;;
78614;SDS011;67937;52.488;20.952;2024-02-26T07:31:45;22.00;;;11.30;;
78614;SDS011;67937;52.488;20.952;2024-02-26T07:34:14;22.30;;;12.20;;
78614;SDS011;67937;52.488;20.952;2024-02-26T07:36:42;21.50;;;11.80;;
78614;SDS011;67937;52.488;20.952;2024-02-26T07:39:11;21.30;;;11.70;;
78614;SDS011;67937;52.488;20.952;2024-02-26T07:41:39;24.10;;;13.20;;
78614;SDS011;67937;52.488;20.952;2024-02-26T07:44:07;24.70;;;11.50;;
78614;SDS011;67937;52.488;20.952;2024-02-26T07:46:35;20.70;;;13.20;;
78614;SDS011;67937;52.488;20.952;2024-02-26T07:49:03;22.70;;;13.10;;
78614;SDS011;67937;52.488;20.952;2024-02-26T07:51:31;24.90;;;12.50;;
78614;SDS011;67937;52.488;20.952;2024-02-26T07:53:59;21.30;;;12.00;;
78614;SDS011;67937;52.488;20.952;2024-02-26T07:56:28;23.20;;;13.80;;
78614;SDS011;67937;52.488;20.952;2024-02-26T07:58:56;20.10;;;11.60;;
78614;SDS011;67937;52.488;20.952;2024-02-26T08:01:24;20.50;;;11.70;;
78614;SDS011;67937;52.488;20.952;2024-02-26T08:03:53;17.80;;;10.90;;
78614;SDS011;67937;52.488;20.952;2024-02-26T08:06:22;16.20;;;10.30;;
78614;SDS011;67937;52.488;20.952;2024-02-26T08:08:51;14.80;;;10.20;;
78614;SDS011;67937;52.488;20.952;2024-02-26T08:11:19;20.40;;;10.80;;
78614;SDS011;67937;52.488;20.952;2024-02-26T08:13:48;19.20;;;10.20;;
78614;SDS011;67937;52.488;20.952;2024-02-26T08:16:16;19.20;;;10.20;;
78614;SDS011;67937;52.488;20.952;2024-02-26T08:18:44;23.70;;;11.00;;
78614;SDS011;67937;52.488;20.952;2024-02-26T08:21:12;17.90;;;10.80;;
78614;SDS011;67937;52.488;20.952;2024-02-26T08:23:42;19.20;;;11.60;;
78614;SDS011;67937;52.488;20.952;2024-02-26T08:26:11;21.60;;;11.40;;
78614;SDS011;67937;52.488;20.952;2024-02-26T08:28:39;14.90;;;9.60;;
78614;SDS011;67937;52.488;20.952;2024-02-26T08:31:07;20.20;;;12.30;;
78614;SDS011;67937;52.488;20.952;2024-02-26T08:33:36;23.60;;;13.00;;
78614;SDS011;67937;52.488;20.952;2024-02-26T08:36:07;26.30;;;13.50;;
78614;SDS011;67937;52.488;20.952;2024-02-26T08:38:36;19.00;;;12.10;;
78614;SDS011;67937;52.488;20.952;2024-02-26T08:41:04;21.40;;;13.20;;
78614;SDS011;67937;52.488;20.952;2024-02-26T08:43:32;18.10;;;12.00;;
78614;SDS011;67937;52.488;20.952;2024-02-26T08:46:00;20.20;;;12.30;;
78614;SDS011;67937;52.488;20.952;2024-02-26T08:48:29;21.20;;;11.90;;
78614;SDS011;67937;52.488;20.952;2024-02-26T08:50:57;21.80;;;12.50;;
78614;SDS011;67937;52.488;20.952;2024-02-26T08:53:25;20.30;;;11.80;;
78614;SDS011;67937;52.488;20.952;2024-02-26T08:55:54;21.40;;;12.60;;
78614;SDS011;67937;52.488;20.952;2024-02-26T08:58:22;10.40;;;9.00;;
78614;SDS011;67937;52.488;20.952;2024-02-26T09:00:51;18.90;;;10.40;;
78614;SDS011;67937;52.488;20.952;2024-02-26T09:03:19;18.40;;;11.70;;
78614;SDS011;67937;52.488;20.952;2024-02-26T09:05:47;18.10;;;12.00;;
78614;SDS011;67937;52.488;20.952;2024-02-26T09:08:17;17.70;;;10.30;;
78614;SDS011;67937;52.488;20.952;2024-02-26T09:10:45;20.80;;;11.70;;
78614;SDS011;67937;52.488;20.952;2024-02-26T09:13:13;18.90;;;11.00;;
78614;SDS011;67937;52.488;20.952;2024-02-26T09:15:42;16.90;;;10.10;;
78614;SDS011;67937;52.488;20.952;2024-02-26T09:18:10;20.40;;;10.10;;
78614;SDS011;67937;52.488;20.952;2024-02-26T09:20:38;25.20;;;12.40;;
78614;SDS011;67937;52.488;20.952;2024-02-26T09:23:06;17.10;;;11.40;;
78614;SDS011;67937;52.488;20.952;2024-02-26T09:25:35;14.70;;;11.00;;
78614;SDS011;67937;52.488;20.952;2024-02-26T09:28:03;16.60;;;10.60;;
78614;SDS011;67937;52.488;20.952;2024-02-26T09:30:32;19.10;;;11.60;;
78614;SDS011;67937;52.488;20.952;2024-02-26T09:33:00;16.30;;;9.70;;
78614;SDS011;67937;52.488;20.952;2024-02-26T09:35:28;14.30;;;9.50;;
78614;SDS011;67937;52.488;20.952;2024-02-26T09:37:57;18.30;;;10.30;;
78614;SDS011;67937;52.488;20.952;2024-02-26T09:40:25;15.70;;;9.90;;
78614;SDS011;67937;52.488;20.952;2024-02-26T09:42:58;15.90;;;9.80;;
78614;SDS011;67937;52.488;20.952;2024-02-26T09:45:28;12.20;;;8.00;;
78614;SDS011;67937;52.488;20.952;2024-02-26T09:47:56;16.40;;;9.70;;
78614;SDS011;67937;52.488;20.952;2024-02-26T09:50:24;14.50;;;10.30;;
78614;SDS011;67937;52.488;20.952;2024-02-26T09:52:53;13.90;;;10.00;;
78614;SDS011;67937;52.488;20.952;2024-02-26T09:55:24;10.30;;;7.40;;
78614;SDS011;67937;52.488;20.952;2024-02-26T09:57:52;12.30;;;8.20;;
78614;SDS011;67937;52.488;20.952;2024-02-26T10:00:21;13.80;;;8.60;;
78614;SDS011;67937;52.488;20.952;2024-02-26T10:02:50;15.30;;;10.40;;
78614;SDS011;67937;52.488;20.952;2024-02-26T10:05:19;13.60;;;9.00;;
78614;SDS011;67937;52.488;20.952;2024-02-26T10:07:47;15.90;;;9.80;;
78614;SDS011;67937;52.488;20.952;2024-02-26T10:10:17;13.70;;;8.60;;
78614;SDS011;67937;52.488;20.952;2024-02-26T10:12:46;14.70;;;8.30;;
78614;SDS011;67937;52.488;20.952;2024-02-26T10:15:14;13.40;;;8.20;;
78614;SDS011;67937;52.488;20.952;2024-02-26T10:17:42;9.10;;;8.20;;
78614;SDS011;67937;52.488;20.952;2024-02-26T10:20:11;10.60;;;5.90;;
78614;SDS011;67937;52.488;20.952;2024-02-26T10:22:44;8.50;;;6.40;;
78614;SDS011;67937;52.488;20.952;2024-02-26T10:25:12;11.80;;;8.30;;
78614;SDS011;67937;52.488;20.952;2024-02-26T10:27:41;10.40;;;7.70;;
78614;SDS011;67937;52.488;20.952;2024-02-26T10:30:16;10.50;;;7.50;;
78614;SDS011;67937;52.488;20.952;2024-02-26T10:32:46;11.00;;;8.70;;
78614;SDS011;67937;52.488;20.952;2024-02-26T10:35:15;10.00;;;7.70;;
78614;SDS011;67937;52.488;20.952;2024-02-26T10:37:44;11.70;;;7.70;;
78614;SDS011;67937;52.488;20.952;2024-02-26T10:40:13;10.40;;;7.80;;
78614;SDS011;67937;52.488;20.952;2024-02-26T10:42:42;11.10;;;7.40;;
78614;SDS011;67937;52.488;20.952;2024-02-26T10:45:12;10.50;;;7.70;;
78614;SDS011;67937;52.488;20.952;2024-02-26T10:47:40;9.90;;;6.80;;
78614;SDS011;67937;52.488;20.952;2024-02-26T10:50:08;10.30;;;8.20;;
78614;SDS011;67937;52.488;20.952;2024-02-26T10:52:37;13.50;;;9.30;;
78614;SDS011;67937;52.488;20.952;2024-02-26T10:55:05;12.00;;;8.70;;
78614;SDS011;67937;52.488;20.952;2024-02-26T10:57:40;11.20;;;8.50;;
78614;SDS011;67937;52.488;20.952;2024-02-26T11:00:13;8.80;;;7.90;;
78614;SDS011;67937;52.488;20.952;2024-02-26T11:02:43;12.60;;;9.10;;
78614;SDS011;67937;52.488;20.952;2024-02-26T11:05:12;12.00;;;9.10;;
78614;SDS011;67937;52.488;20.952;2024-02-26T11:07:42;12.40;;;7.40;;
78614;SDS011;67937;52.488;20.952;2024-02-26T11:10:11;10.40;;;8.00;;
78614;SDS011;67937;52.488;20.952;2024-02-26T11:12:39;8.80;;;7.00;;
78614;SDS011;67937;52.488;20.952;2024-02-26T11:15:09;8.50;;;6.80;;
78614;SDS011;67937;52.488;20.952;2024-02-26T11:17:38;9.90;;;7.40;;
78614;SDS011;67937;52.488;20.952;2024-02-26T11:22:39;9.60;;;7.60;;
78614;SDS011;67937;52.488;20.952;2024-02-26T11:25:07;11.40;;;8.40;;
78614;SDS011;67937;52.488;20.952;2024-02-26T11:27:38;13.20;;;7.20;;
78614;SDS011;67937;52.488;20.952;2024-02-26T11:30:15;9.70;;;7.70;;
78614;SDS011;67937;52.488;20.952;2024-02-26T11:32:46;9.60;;;7.10;;
78614;SDS011;67937;52.488;20.952;2024-02-26T11:35:14;11.00;;;8.60;;
78614;SDS011;67937;52.488;20.952;2024-02-26T11:37:54;8.90;;;7.30;;
78614;SDS011;67937;52.488;20.952;2024-02-26T11:40:25;12.00;;;8.10;;
78614;SDS011;67937;52.488;20.952;2024-02-26T11:42:53;11.30;;;8.40;;
78614;SDS011;67937;52.488;20.952;2024-02-26T11:48:12;8.50;;;7.40;;
78614;SDS011;67937;52.488;20.952;2024-02-26T11:50:41;9.00;;;7.70;;
78614;SDS011;67937;52.488;20.952;2024-02-26T11:53:27;8.20;;;7.00;;
78614;SDS011;67937;52.488;20.952;2024-02-26T11:58:45;8.80;;;7.50;;
78614;SDS011;67937;52.488;20.952;2024-02-26T12:04:22;9.70;;;7.00;;
78614;SDS011;67937;52.488;20.952;2024-02-26T12:06:55;7.10;;;6.20;;
78614;SDS011;67937;52.488;20.952;2024-02-26T12:09:30;7.50;;;6.60;;
78614;SDS011;67937;52.488;20.952;2024-02-26T12:12:01;6.80;;;5.90;;
78614;SDS011;67937;52.488;20.952;2024-02-26T12:14:32;7.40;;;6.70;;
78614;SDS011;67937;52.488;20.952;2024-02-26T12:17:01;6.30;;;5.70;;
78614;SDS011;67937;52.488;20.952;2024-02-26T12:19:36;6.60;;;5.90;;
78614;SDS011;67937;52.488;20.952;2024-02-26T12:22:06;6.80;;;5.60;;
78614;SDS011;67937;52.488;20.952;2024-02-26T12:24:35;6.10;;;5.50;;
78614;SDS011;67937;52.488;20.952;2024-02-26T12:27:04;7.60;;;6.30;;
78614;SDS011;67937;52.488;20.952;2024-02-26T12:29:32;5.90;;;5.20;;
78614;SDS011;67937;52.488;20.952;2024-02-26T12:32:01;7.40;;;5.50;;
78614;SDS011;67937;52.488;20.952;2024-02-26T12:34:32;6.70;;;6.00;;
78614;SDS011;67937;52.488;20.952;2024-02-26T12:37:00;7.80;;;5.80;;
78614;SDS011;67937;52.488;20.952;2024-02-26T12:39:29;8.50;;;6.80;;
78614;SDS011;67937;52.488;20.952;2024-02-26T12:41:58;5.80;;;4.90;;
78614;SDS011;67937;52.488;20.952;2024-02-26T12:44:26;5.80;;;4.70;;
78614;SDS011;67937;52.488;20.952;2024-02-26T12:47:01;5.50;;;5.00;;
78614;SDS011;67937;52.488;20.952;2024-02-26T12:49:30;5.60;;;4.70;;
78614;SDS011;67937;52.488;20.952;2024-02-26T12:51:59;7.20;;;5.10;;
78614;SDS011;67937;52.488;20.952;2024-02-26T12:54:29;6.50;;;5.20;;
78614;SDS011;67937;52.488;20.952;2024-02-26T12:56:59;6.60;;;5.10;;
78614;SDS011;67937;52.488;20.952;2024-02-26T12:59:28;4.90;;;4.20;;
78614;SDS011;67937;52.488;20.952;2024-02-26T13:01:58;5.20;;;4.40;;
78614;SDS011;67937;52.488;20.952;2024-02-26T13:04:28;7.70;;;4.60;;
78614;SDS011;67937;52.488;20.952;2024-02-26T13:06:58;5.40;;;4.90;;
78614;SDS011;67937;52.488;20.952;2024-02-26T13:09:32;5.90;;;4.60;;
78614;SDS011;67937;52.488;20.952;2024-02-26T13:12:03;5.10;;;4.20;;
78614;SDS011;67937;52.488;20.952;2024-02-26T13:14:33;5.20;;;4.40;;
78614;SDS011;67937;52.488;20.952;2024-02-26T13:17:02;5.50;;;4.90;;
78614;SDS011;67937;52.488;20.952;2024-02-26T13:19:31;5.60;;;3.70;;
78614;SDS011;67937;52.488;20.952;2024-02-26T13:22:03;7.40;;;4.70;;
78614;SDS011;67937;52.488;20.952;2024-02-26T13:24:33;4.60;;;4.10;;
78614;SDS011;67937;52.488;20.952;2024-02-26T13:27:03;4.40;;;4.00;;
78614;SDS011;67937;52.488;20.952;2024-02-26T13:29:32;5.30;;;4.40;;
78614;SDS011;67937;52.488;20.952;2024-02-26T13:32:00;4.40;;;4.00;;
78614;SDS011;67937;52.488;20.952;2024-02-26T13:34:29;4.20;;;3.90;;
78614;SDS011;67937;52.488;20.952;2024-02-26T13:36:58;4.00;;;3.70;;
78614;SDS011;67937;52.488;20.952;2024-02-26T13:39:27;4.70;;;4.30;;
78614;SDS011;67937;52.488;20.952;2024-02-26T13:41:56;3.80;;;3.50;;
78614;SDS011;67937;52.488;20.952;2024-02-26T13:44:24;4.90;;;3.70;;
78614;SDS011;67937;52.488;20.952;2024-02-26T13:46:52;4.60;;;4.10;;
78614;SDS011;67937;52.488;20.952;2024-02-26T13:49:20;4.10;;;3.60;;
78614;SDS011;67937;52.488;20.952;2024-02-26T13:51:48;3.90;;;3.20;;
78614;SDS011;67937;52.488;20.952;2024-02-26T13:54:16;4.30;;;3.40;;
78614;SDS011;67937;52.488;20.952;2024-02-26T13:56:45;3.80;;;3.40;;
78614;SDS011;67937;52.488;20.952;2024-02-26T13:59:13;3.90;;;3.40;;
78614;SDS011;67937;52.488;20.952;2024-02-26T14:01:41;3.50;;;3.20;;
78614;SDS011;67937;52.488;20.952;2024-02-26T14:04:09;3.80;;;3.40;;
78614;SDS011;67937;52.488;20.952;2024-02-26T14:06:37;2.80;;;2.60;;
78614;SDS011;67937;52.488;20.952;2024-02-26T14:09:07;3.30;;;3.00;;
78614;SDS011;67937;52.488;20.952;2024-02-26T14:11:36;3.00;;;2.80;;
78614;SDS011;67937;52.488;20.952;2024-02-26T14:14:06;3.00;;;2.70;;
78614;SDS011;67937;52.488;20.952;2024-02-26T14:16:34;3.30;;;3.10;;
78614;SDS011;67937;52.488;20.952;2024-02-26T14:19:02;3.90;;;3.10;;
78614;SDS011;67937;52.488;20.952;2024-02-26T14:21:30;4.10;;;3.30;;
78614;SDS011;67937;52.488;20.952;2024-02-26T14:23:58;4.10;;;3.00;;
78614;SDS011;67937;52.488;20.952;2024-02-26T14:26:26;5.20;;;3.70;;
78614;SDS011;67937;52.488;20.952;2024-02-26T14:28:55;4.10;;;3.50;;
78614;SDS011;67937;52.488;20.952;2024-02-26T14:31:23;3.40;;;3.00;;
78614;SDS011;67937;52.488;20.952;2024-02-26T14:33:52;3.00;;;2.70;;
78614;SDS011;67937;52.488;20.952;2024-02-26T14:36:21;3.20;;;2.80;;